Time;durP1;ratioP1;P1;durP2;ratioP2;P2;SDS_P1;SDS_P2;PMS_P1;PMS_P2;Temp;Humidity;BMP_temperature;BMP_pressure;BME280_temperature;BME280_humidity;BME280_pressure;Samples;Min_cycle;Max_cycle;Signal;HPM_P1;HPM_P2
2022/11/01 00:00:11;;;;;;;17.83;11.90;;;;;;;14.17;79.53;99452.56;340323;28;2141;-72
2022/11/01 00:00:23;;;;;;;19.05;11.90;;;;;;;14.19;79.39;99461.19;340652;29;2634;-71
2022/11/01 00:00:35;;;;;;;19.27;12.43;;;;;;;14.19;79.25;99455.94;340724;29;842;-71
2022/11/01 00:00:48;;;;;;;18.95;12.45;;;;;;;14.21;79.31;99455.03;339300;29;1368;-70
2022/11/01 00:01:00;;;;;;;20.38;12.52;;;;;;;14.21;79.25;99458.50;339488;29;1120;-71
2022/11/01 00:01:11;;;;;;;19.83;12.50;;;;;;;14.22;79.11;99465.41;339247;29;1228;-71
2022/11/01 00:01:23;;;;;;;17.92;12.15;;;;;;;14.23;79.14;99456.66;338498;29;1346;-71
2022/11/01 00:01:35;;;;;;;17.83;11.60;;;;;;;14.24;79.06;99454.88;336925;29;1557;-71
2022/11/01 00:01:48;;;;;;;18.42;11.63;;;;;;;14.24;79.29;99458.31;336417;29;1919;-72
2022/11/01 00:02:01;;;;;;;16.98;11.18;;;;;;;14.26;79.00;99461.72;337751;29;1703;-71
2022/11/01 00:02:13;;;;;;;16.95;11.43;;;;;;;14.28;78.89;99459.84;336912;29;1932;-71
2022/11/01 00:02:25;;;;;;;17.80;11.60;;;;;;;14.28;78.88;99457.25;338023;29;1565;-71
2022/11/01 00:02:37;;;;;;;18.27;11.73;;;;;;;14.27;78.92;99458.19;338122;29;1108;-71
2022/11/01 00:02:49;;;;;;;18.02;11.40;;;;;;;14.27;78.82;99457.34;338346;29;1272;-71
2022/11/01 00:03:01;;;;;;;17.52;11.15;;;;;;;14.28;78.68;99454.63;339631;29;1249;-71
2022/11/01 00:03:13;;;;;;;17.50;10.88;;;;;;;14.28;78.65;99459.84;338602;29;1910;-71
2022/11/01 00:03:25;;;;;;;18.92;11.05;;;;;;;14.27;78.64;99458.19;338177;29;1671;-71
2022/11/01 00:03:37;;;;;;;18.70;11.35;;;;;;;14.28;78.61;99449.41;338585;29;1151;-71
2022/11/01 00:03:48;;;;;;;21.02;11.48;;;;;;;14.29;78.71;99455.50;339542;29;1867;-72
2022/11/01 00:04:00;;;;;;;18.92;11.43;;;;;;;14.28;78.66;99457.25;339335;29;1077;-71
2022/11/01 00:04:12;;;;;;;17.73;11.27;;;;;;;14.28;78.48;99449.41;338700;29;1721;-72
2022/11/01 00:04:25;;;;;;;17.77;11.05;;;;;;;14.30;78.63;99451.94;338242;29;1716;-71
2022/11/01 00:04:37;;;;;;;20.00;10.68;;;;;;;14.29;78.43;99445.88;339422;29;1190;-71
2022/11/01 00:04:49;;;;;;;20.08;10.82;;;;;;;14.28;78.83;99454.63;339093;29;1672;-71
2022/11/01 00:05:01;;;;;;;20.05;10.93;;;;;;;14.29;78.45;99452.88;339362;29;1029;-71
2022/11/01 00:05:13;;;;;;;17.00;10.70;;;;;;;14.29;78.46;99455.50;338249;29;1962;-71
2022/11/01 00:05:25;;;;;;;16.65;10.65;;;;;;;14.30;78.59;99458.00;339332;29;1295;-71
2022/11/01 00:05:37;;;;;;;17.27;10.98;;;;;;;14.30;78.45;99457.19;340765;29;1108;-71
2022/11/01 00:05:49;;;;;;;17.00;11.18;;;;;;;14.28;78.59;99454.63;341036;29;1708;-70
2022/11/01 00:06:01;;;;;;;18.65;11.45;;;;;;;14.28;78.61;99454.63;340569;29;1168;-71
2022/11/01 00:06:13;;;;;;;18.67;11.40;;;;;;;14.29;78.54;99451.09;340113;29;1809;-70
2022/11/01 00:06:25;;;;;;;15.23;10.98;;;;;;;14.31;78.64;99451.03;340187;29;1759;-71
2022/11/01 00:06:37;;;;;;;13.65;10.23;;;;;;;14.30;78.67;99451.94;340741;29;1220;-71
2022/11/01 00:06:49;;;;;;;15.68;10.32;;;;;;;14.28;78.62;99454.63;340895;29;1198;-71
2022/11/01 00:07:01;;;;;;;18.98;11.18;;;;;;;14.29;78.66;99456.34;340143;29;1858;-71
2022/11/01 00:07:13;;;;;;;18.40;11.68;;;;;;;14.29;78.57;99455.50;339631;29;1733;-72
2022/11/01 00:07:25;;;;;;;16.70;11.43;;;;;;;14.27;78.56;99458.19;340100;29;1693;-71
2022/11/01 00:07:37;;;;;;;14.43;10.93;;;;;;;14.25;78.53;99452.19;339963;29;1227;-71
2022/11/01 00:07:51;;;;;;;15.63;10.70;;;;;;;14.22;78.62;99454.09;340807;29;1111;-71
2022/11/01 00:08:04;;;;;;;18.77;11.10;;;;;;;14.19;78.76;99452.50;340864;29;1107;-71
2022/11/01 00:08:16;;;;;;;20.02;11.25;;;;;;;14.16;78.99;99456.09;339908;29;1910;-72
2022/11/01 00:08:28;;;;;;;19.60;11.50;;;;;;;14.12;78.87;99448.50;338174;29;2746;-71
2022/11/01 00:08:40;;;;;;;18.48;11.38;;;;;;;14.11;79.27;99449.44;338206;29;1032;-72
2022/11/01 00:08:52;;;;;;;14.93;10.93;;;;;;;14.11;79.17;99449.44;338312;29;2192;-71
2022/11/01 00:09:04;;;;;;;14.30;10.93;;;;;;;14.13;78.69;99455.44;338029;29;1796;-71
2022/11/01 00:09:17;;;;;;;16.15;11.10;;;;;;;14.12;79.14;99453.72;337349;29;1959;-71
2022/11/01 00:09:29;;;;;;;17.10;11.52;;;;;;;14.08;78.98;99452.19;337742;29;1867;-72
2022/11/01 00:09:40;;;;;;;18.20;11.52;;;;;;;14.04;79.34;99451.47;338066;29;1312;-72
2022/11/01 00:09:52;;;;;;;19.00;11.63;;;;;;;14.04;79.24;99455.88;338270;29;1303;-71
2022/11/01 00:10:05;;;;;;;17.38;11.15;;;;;;;14.04;79.35;99455.88;338166;29;1204;-72
2022/11/01 00:10:17;;;;;;;16.63;10.85;;;;;;;14.05;79.60;99452.34;337417;29;1909;-71
2022/11/01 00:10:29;;;;;;;17.55;10.43;;;;;;;14.04;79.49;99451.47;338110;29;1999;-71
2022/11/01 00:10:41;;;;;;;17.55;10.35;;;;;;;14.05;79.28;99449.75;336070;29;1979;-71
2022/11/01 00:11:03;;;;;;;16.45;10.48;;;;;;;14.08;79.38;99457.41;338104;29;1452;-70
2022/11/01 00:11:16;;;;;;;17.60;10.60;;;;;;;14.08;79.37;99462.63;338623;29;2010;-71
2022/11/01 00:11:28;;;;;;;18.93;10.70;;;;;;;14.08;79.24;99462.63;339445;29;1911;-72
2022/11/01 00:11:41;;;;;;;17.75;10.85;;;;;;;14.10;79.24;99456.41;339358;29;1196;-72
2022/11/01 00:11:53;;;;;;;16.67;10.63;;;;;;;14.09;79.37;99459.13;339602;29;1047;-72
2022/11/01 00:12:04;;;;;;;18.67;10.20;;;;;;;14.10;79.26;99458.19;339635;29;1034;-72
2022/11/01 00:12:16;;;;;;;16.85;10.07;;;;;;;14.09;79.27;99459.97;338779;29;1890;-72
2022/11/01 00:12:31;;;;;;;15.85;10.40;;;;;;;14.08;79.47;99457.41;338891;29;1773;-72
2022/11/01 00:12:44;;;;;;;18.45;11.43;;;;;;;14.07;79.25;99460.97;339753;29;1652;-72
2022/11/01 00:12:56;;;;;;;18.23;11.73;;;;;;;14.04;79.19;99456.72;340379;29;1647;-71
2022/11/01 00:13:08;;;;;;;16.45;11.73;;;;;;;14.07;79.21;99460.97;340968;29;1273;-72
2022/11/01 00:13:20;;;;;;;18.10;11.75;;;;;;;14.07;79.21;99460.97;339376;29;1577;-71
2022/11/01 00:13:32;;;;;;;20.27;11.85;;;;;;;14.07;79.10;99460.97;338159;29;1793;-72
2022/11/01 00:13:45;;;;;;;18.65;11.75;;;;;;;14.06;79.00;99459.25;338246;29;1290;-72
2022/11/01 00:13:57;;;;;;;18.40;11.52;;;;;;;14.05;79.05;99465.41;338995;29;1736;-71
2022/11/01 00:14:14;;;;;;;17.60;11.50;;;;;;;14.04;78.93;99458.50;339479;29;1737;-72
2022/11/01 00:14:26;;;;;;;17.20;11.23;;;;;;;14.06;78.91;99456.63;339131;29;1927;-71
2022/11/01 00:14:39;;;;;;;16.58;10.82;;;;;;;14.08;78.98;99457.41;339198;29;1743;-72
2022/11/01 00:14:51;;;;;;;15.93;10.48;;;;;;;14.08;78.97;99457.41;339419;29;1300;-72
2022/11/01 00:15:03;;;;;;;16.65;11.00;;;;;;;14.08;79.17;99460.03;339436;29;1753;-73
2022/11/01 00:15:15;;;;;;;18.52;11.57;;;;;;;14.08;79.08;99458.25;338088;29;1874;-72
2022/11/01 00:15:27;;;;;;;19.00;11.60;;;;;;;14.08;79.36;99457.41;337992;29;1036;-72
2022/11/01 00:15:39;;;;;;;20.90;11.68;;;;;;;14.08;79.26;99458.25;338456;29;1112;-72
2022/11/01 00:15:50;;;;;;;18.02;11.45;;;;;;;14.07;79.25;99460.97;339255;29;1223;-72
2022/11/01 00:16:03;;;;;;;17.88;11.07;;;;;;;14.06;79.08;99451.41;338120;29;1706;-71
2022/11/01 00:16:16;;;;;;;17.05;10.45;;;;;;;14.08;79.05;99457.41;338448;29;2526;-71
2022/11/01 00:16:28;;;;;;;16.65;9.95;;;;;;;14.08;78.93;99452.19;338107;29;1866;-71
2022/11/01 00:16:40;;;;;;;15.93;9.70;;;;;;;14.08;79.08;99450.41;338512;29;1565;-71
2022/11/01 00:16:52;;;;;;;14.18;9.75;;;;;;;14.09;79.02;99449.50;339034;29;951;-72
2022/11/01 00:17:04;;;;;;;14.55;9.88;;;;;;;14.10;78.89;99455.56;339507;29;1232;-72
2022/11/01 00:17:16;;;;;;;14.90;10.10;;;;;;;14.10;78.78;99453.78;336940;29;1998;-71
2022/11/01 00:17:28;;;;;;;13.70;9.68;;;;;;;14.11;78.82;99454.66;337428;29;1617;-71
2022/11/01 00:17:40;;;;;;;13.68;9.88;;;;;;;14.11;78.35;99446.81;337082;29;1306;-72
2022/11/01 00:17:52;;;;;;;13.02;9.43;;;;;;;14.11;78.72;99449.44;338461;29;1091;-72
2022/11/01 00:18:04;;;;;;;12.75;9.60;;;;;;;14.12;78.81;99458.94;338498;29;2155;-72
2022/11/01 00:18:16;;;;;;;13.20;9.70;;;;;;;14.09;78.81;99446.88;336742;29;1800;-71
2022/11/01 00:18:28;;;;;;;15.23;9.98;;;;;;;14.09;78.68;99449.50;337100;29;1665;-71
2022/11/01 00:18:40;;;;;;;15.80;10.07;;;;;;;14.09;78.85;99454.72;338286;29;1053;-72
2022/11/01 00:18:52;;;;;;;16.25;10.68;;;;;;;14.07;78.65;99450.50;338425;29;1164;-72
2022/11/01 00:19:04;;;;;;;17.40;11.20;;;;;;;14.04;78.84;99458.50;338611;29;1244;-71
2022/11/01 00:19:17;;;;;;;16.45;11.23;;;;;;;14.03;78.97;99449.81;337118;29;1861;-73
2022/11/01 00:19:29;;;;;;;14.80;10.45;;;;;;;14.01;78.79;99450.81;339453;29;1946;-71
2022/11/01 00:19:41;;;;;;;13.18;9.73;;;;;;;13.98;79.21;99452.66;339714;29;1167;-71
2022/11/01 00:19:52;;;;;;;13.68;9.48;;;;;;;13.99;79.19;99454.34;339711;29;1023;-71
2022/11/01 00:20:05;;;;;;;14.75;9.05;;;;;;;14.00;79.35;99449.94;339715;29;1064;-71
2022/11/01 00:20:17;;;;;;;15.20;8.60;;;;;;;14.01;79.41;99448.19;337572;29;1927;-71
2022/11/01 00:20:30;;;;;;;14.02;8.73;;;;;;;14.01;79.52;99442.97;339535;29;1599;-71
2022/11/01 00:20:42;;;;;;;12.98;8.55;;;;;;;14.01;79.50;99451.66;338108;29;1204;-71
2022/11/01 00:20:54;;;;;;;12.32;8.80;;;;;;;14.01;79.50;99448.19;338138;29;1494;-71
2022/11/01 00:21:06;;;;;;;12.50;8.88;;;;;;;14.00;79.53;99449.94;338426;29;1048;-72
2022/11/01 00:21:18;;;;;;;14.00;9.20;;;;;;;13.97;79.33;99445.72;337013;29;2138;-71
2022/11/01 00:21:30;;;;;;;14.93;9.52;;;;;;;13.94;79.61;99451.13;337725;29;1492;-72
2022/11/01 00:21:42;;;;;;;14.77;9.77;;;;;;;13.93;79.66;99449.41;337850;29;1273;-71
2022/11/01 00:21:54;;;;;;;16.23;9.70;;;;;;;13.90;79.79;99454.78;338412;29;1036;-72
2022/11/01 00:22:06;;;;;;;15.57;9.80;;;;;;;13.90;79.98;99454.78;338368;29;1141;-71
2022/11/01 00:22:18;;;;;;;16.13;9.90;;;;;;;13.90;79.84;99446.94;337713;29;2357;-72
2022/11/01 00:22:31;;;;;;;17.00;9.98;;;;;;;13.90;79.81;99449.56;338781;29;1082;-71
2022/11/01 00:22:43;;;;;;;14.98;9.65;;;;;;;13.91;79.95;99453.88;337590;29;1195;-71
2022/11/01 00:22:55;;;;;;;13.80;9.20;;;;;;;13.92;79.96;99452.09;338508;29;1043;-71
2022/11/01 00:23:07;;;;;;;14.30;9.27;;;;;;;13.92;79.99;99447.75;338338;29;1013;-71
2022/11/01 00:23:20;;;;;;;15.80;9.80;;;;;;;13.92;79.97;99442.53;338797;29;1853;-71
2022/11/01 00:23:33;;;;;;;15.82;9.73;;;;;;;13.93;80.00;99444.19;338095;29;1012;-72
2022/11/01 00:23:45;;;;;;;15.27;9.77;;;;;;;13.94;79.76;99451.13;338271;29;1903;-71
2022/11/01 00:23:57;;;;;;;16.67;9.68;;;;;;;13.93;80.24;99451.19;338457;29;1497;-72
2022/11/01 00:24:09;;;;;;;15.15;9.50;;;;;;;13.92;80.28;99447.75;337020;29;1905;-73
2022/11/01 00:24:21;;;;;;;14.15;9.15;;;;;;;13.94;80.26;99455.47;336827;29;1705;-71
2022/11/01 00:24:33;;;;;;;18.52;9.80;;;;;;;13.93;80.46;99454.66;336778;29;1069;-72
2022/11/01 00:24:45;;;;;;;19.33;9.80;;;;;;;13.94;80.34;99451.13;337165;29;1884;-72
2022/11/01 00:24:57;;;;;;;14.55;9.15;;;;;;;13.97;80.41;99450.97;336690;29;1857;-71
2022/11/01 00:25:10;;;;;;;13.00;8.35;;;;;;;13.99;80.28;99451.72;336666;29;2145;-72
2022/11/01 00:25:22;;;;;;;12.45;7.88;;;;;;;14.01;80.16;99450.81;336900;29;2107;-72
2022/11/01 00:25:35;;;;;;;12.85;8.15;;;;;;;14.03;80.17;99448.97;337370;29;1153;-72
2022/11/01 00:25:47;;;;;;;14.77;8.63;;;;;;;14.03;79.95;99448.97;338594;29;1197;-71
2022/11/01 00:26:00;;;;;;;14.38;8.75;;;;;;;14.03;79.97;99447.19;338679;29;1068;-71
2022/11/01 00:26:20;;;;;;;12.88;8.65;;;;;;;13.97;80.09;99444.91;338906;29;1918;-71
2022/11/01 00:26:32;;;;;;;11.45;8.70;;;;;;;13.98;80.24;99443.94;339500;29;1789;-71
2022/11/01 00:26:44;;;;;;;12.00;8.55;;;;;;;13.98;80.22;99447.44;339770;29;1111;-71
2022/11/01 00:26:57;;;;;;;14.48;8.50;;;;;;;13.97;80.27;99445.72;339960;29;1222;-71
2022/11/01 00:27:09;;;;;;;14.23;8.20;;;;;;;14.00;80.22;99444.72;339624;29;1770;-71
2022/11/01 00:27:21;;;;;;;15.05;8.20;;;;;;;13.98;80.23;99444.81;340703;29;1823;-71
2022/11/01 00:27:33;;;;;;;12.85;7.93;;;;;;;13.98;80.30;99442.22;340505;29;1139;-71
2022/11/01 00:27:45;;;;;;;12.98;8.27;;;;;;;13.98;80.41;99446.56;341044;29;1310;-71
2022/11/01 00:27:57;;;;;;;13.63;8.60;;;;;;;13.97;80.41;99445.72;340589;29;1471;-72
2022/11/01 00:28:09;;;;;;;14.93;8.98;;;;;;;13.98;80.28;99447.44;339655;29;1637;-71
2022/11/01 00:28:21;;;;;;;14.77;8.50;;;;;;;13.98;80.32;99442.22;340244;29;1451;-71
2022/11/01 00:28:33;;;;;;;14.63;8.35;;;;;;;13.98;80.40;99447.44;338729;29;1087;-71
2022/11/01 00:28:46;;;;;;;14.15;8.48;;;;;;;13.98;80.60;99446.56;339184;29;1457;-71
2022/11/01 00:28:58;;;;;;;13.23;8.77;;;;;;;13.97;80.55;99440.50;339445;29;1222;-71
2022/11/01 00:29:11;;;;;;;13.82;8.90;;;;;;;13.98;80.40;99442.22;339242;29;2462;-72
2022/11/01 00:29:23;;;;;;;15.50;9.00;;;;;;;13.98;80.58;99452.66;339014;29;1632;-72
2022/11/01 00:29:36;;;;;;;15.02;9.00;;;;;;;13.99;80.64;99441.28;340036;29;975;-71
2022/11/01 00:29:48;;;;;;;12.40;8.95;;;;;;;14.01;80.63;99442.97;339007;29;2376;-71
2022/11/01 00:30:00;;;;;;;11.93;8.65;;;;;;;14.02;80.62;99447.25;339466;29;1206;-71
2022/11/01 00:30:12;;;;;;;11.93;8.50;;;;;;;14.02;80.56;99442.03;339087;29;2091;-71
2022/11/01 00:30:24;;;;;;;13.13;8.52;;;;;;;14.03;80.53;99443.75;338599;29;1515;-72
2022/11/01 00:30:36;;;;;;;15.27;8.82;;;;;;;14.01;80.64;99441.19;339887;29;1052;-71
2022/11/01 00:30:51;;;;;;;16.10;8.95;;;;;;;14.02;80.65;99437.66;340128;29;1613;-72
2022/11/01 00:31:04;;;;;;;14.98;8.80;;;;;;;14.05;80.64;99441.91;339786;29;983;-71
2022/11/01 00:31:21;;;;;;;13.38;8.50;;;;;;;14.06;80.72;99433.13;340368;29;1610;-73
2022/11/01 00:31:33;;;;;;;14.10;8.63;;;;;;;14.08;80.41;99441.72;340140;29;1640;-71
2022/11/01 00:31:45;;;;;;;13.15;8.45;;;;;;;14.09;80.39;99439.03;341262;29;1081;-71
2022/11/01 00:31:58;;;;;;;14.10;8.80;;;;;;;14.11;80.42;99437.19;340977;29;1400;-70
2022/11/01 00:32:11;;;;;;;14.27;8.90;;;;;;;14.11;80.39;99441.59;340807;29;1843;-71
2022/11/01 00:32:23;;;;;;;11.95;8.60;;;;;;;14.10;80.49;99439.88;340654;29;1986;-71
2022/11/01 00:32:35;;;;;;;13.13;8.63;;;;;;;14.10;80.23;99432.03;339109;29;1309;-71
2022/11/01 00:32:47;;;;;;;13.02;8.68;;;;;;;14.13;80.23;99434.50;338562;29;1058;-71
2022/11/01 00:32:59;;;;;;;13.73;8.60;;;;;;;14.13;80.13;99439.75;338573;29;1110;-71
2022/11/01 00:33:11;;;;;;;13.15;8.25;;;;;;;14.14;80.40;99438.81;338206;29;2539;-71
2022/11/01 00:33:24;;;;;;;13.02;8.07;;;;;;;14.15;80.03;99432.66;339311;29;1764;-71
2022/11/01 00:33:38;;;;;;;12.23;7.95;;;;;;;14.15;79.89;99445.75;338864;29;1195;-71
2022/11/01 00:33:50;;;;;;;11.68;7.70;;;;;;;14.14;79.99;99441.41;338252;29;1167;-71
2022/11/01 00:34:04;;;;;;;12.30;7.68;;;;;;;14.13;79.94;99443.19;338410;29;1146;-71
2022/11/01 00:34:17;;;;;;;13.20;7.65;;;;;;;14.11;79.87;99436.38;338608;29;1894;-71
2022/11/01 00:34:29;;;;;;;13.75;7.90;;;;;;;14.09;80.16;99432.97;339659;29;1976;-71
2022/11/01 00:34:40;;;;;;;14.88;8.25;;;;;;;14.06;80.18;99433.97;339373;29;2026;-71
2022/11/01 00:34:55;;;;;;;16.00;8.52;;;;;;;14.06;80.16;99440.97;339619;29;1152;-71
2022/11/01 00:35:07;;;;;;;12.85;8.18;;;;;;;14.06;80.26;99435.72;340042;29;888;-71
2022/11/01 00:35:19;;;;;;;12.10;7.80;;;;;;;14.07;80.24;99434.81;339086;28;2086;-72
2022/11/01 00:35:32;;;;;;;12.02;7.57;;;;;;;14.08;80.27;99431.28;339773;29;1605;-71
2022/11/01 00:35:46;;;;;;;12.18;7.80;;;;;;;14.10;80.32;99434.66;339486;29;1374;-71
2022/11/01 00:36:01;;;;;;;11.82;7.80;;;;;;;14.09;80.34;99430.38;339878;29;1051;-71
2022/11/01 00:36:13;;;;;;;12.88;7.88;;;;;;;14.08;80.44;99432.13;339094;29;1948;-72
2022/11/01 00:36:25;;;;;;;12.73;7.80;;;;;;;14.07;80.27;99435.66;339562;29;1645;-71
2022/11/01 00:36:37;;;;;;;12.38;7.82;;;;;;;14.05;80.35;99423.59;339537;29;1179;-71
2022/11/01 00:36:49;;;;;;;11.70;7.93;;;;;;;14.05;80.35;99432.28;338458;29;1221;-71
2022/11/01 00:37:01;;;;;;;11.35;7.88;;;;;;;14.05;80.50;99434.06;338204;29;1081;-71
2022/11/01 00:37:13;;;;;;;10.18;7.45;;;;;;;14.07;80.45;99426.97;337768;29;1753;-71
2022/11/01 00:37:27;;;;;;;9.23;7.05;;;;;;;14.09;80.32;99422.53;337569;29;1531;-71
2022/11/01 00:37:39;;;;;;;10.45;7.10;;;;;;;14.10;80.26;99426.81;338191;29;1169;-71
2022/11/01 00:37:51;;;;;;;10.85;7.03;;;;;;;14.12;80.28;99427.59;338804;29;735;-71
2022/11/01 00:38:05;;;;;;;11.38;6.80;;;;;;;14.12;80.16;99423.19;338554;29;1053;-71
2022/11/01 00:38:17;;;;;;;11.85;6.93;;;;;;;14.14;80.05;99423.13;337366;29;1864;-71
2022/11/01 00:38:29;;;;;;;9.73;6.90;;;;;;;14.13;80.25;99426.69;337821;29;1903;-71
2022/11/01 00:38:41;;;;;;;8.73;6.97;;;;;;;14.13;80.20;99424.91;336997;29;1091;-72
2022/11/01 00:38:53;;;;;;;10.25;7.20;;;;;;;14.13;80.23;99424.06;337084;29;1925;-71
2022/11/01 00:39:06;;;;;;;12.25;7.68;;;;;;;14.11;80.08;99421.53;338395;29;1073;-72
2022/11/01 00:39:18;;;;;;;13.80;7.93;;;;;;;14.12;80.13;99423.19;337686;29;1770;-71
2022/11/01 00:39:30;;;;;;;13.75;7.82;;;;;;;14.11;80.16;99423.28;337198;29;1989;-71
2022/11/01 00:39:42;;;;;;;12.38;7.68;;;;;;;14.14;80.06;99420.50;336108;29;1202;-71
2022/11/01 00:39:54;;;;;;;12.13;7.57;;;;;;;14.12;80.16;99428.41;336180;29;841;-71
2022/11/01 00:40:07;;;;;;;12.23;8.13;;;;;;;14.12;80.07;99427.59;336352;29;1274;-71
2022/11/01 00:40:19;;;;;;;14.27;8.30;;;;;;;14.13;80.21;99429.28;336338;29;2274;-72
2022/11/01 00:40:31;;;;;;;13.70;8.13;;;;;;;14.10;80.14;99425.03;337222;29;1931;-72
2022/11/01 00:40:44;;;;;;;12.45;7.80;;;;;;;14.07;80.33;99419.97;337217;29;1094;-71
2022/11/01 00:40:56;;;;;;;13.38;7.90;;;;;;;14.08;80.27;99428.66;338087;29;1063;-71
2022/11/01 00:41:08;;;;;;;13.82;7.93;;;;;;;14.05;80.36;99423.59;338395;29;1071;-72
2022/11/01 00:41:20;;;;;;;13.38;8.23;;;;;;;14.04;80.35;99425.34;337750;29;1626;-72
2022/11/01 00:41:33;;;;;;;13.50;8.20;;;;;;;14.04;80.32;99427.13;338337;29;1912;-71
2022/11/01 00:41:45;;;;;;;13.10;8.10;;;;;;;14.03;80.34;99428.91;339788;29;1681;-72
2022/11/01 00:41:57;;;;;;;12.50;8.00;;;;;;;14.02;80.57;99424.59;340994;29;1094;-72
2022/11/01 00:42:09;;;;;;;14.07;8.13;;;;;;;14.04;80.51;99424.50;340816;29;1265;-71
2022/11/01 00:42:21;;;;;;;14.13;7.90;;;;;;;14.04;80.46;99425.34;340531;28;1624;-72
2022/11/01 00:42:33;;;;;;;11.70;7.57;;;;;;;14.06;80.29;99427.91;340769;29;1296;-72
2022/11/01 00:42:45;;;;;;;11.20;7.40;;;;;;;14.07;80.27;99430.44;341115;29;1235;-71
2022/11/01 00:42:57;;;;;;;10.40;7.68;;;;;;;14.08;80.38;99431.28;339665;29;1547;-71
2022/11/01 00:43:10;;;;;;;10.73;7.90;;;;;;;14.08;80.23;99431.28;339402;29;1116;-71
2022/11/01 00:43:22;;;;;;;12.48;8.05;;;;;;;14.08;80.17;99426.88;339133;29;1792;-71
2022/11/01 00:43:35;;;;;;;14.20;7.97;;;;;;;14.07;80.08;99432.22;337387;29;985;-71
2022/11/01 00:43:47;;;;;;;14.95;8.38;;;;;;;14.06;80.21;99427.91;337731;29;1107;-72
2022/11/01 00:43:59;;;;;;;13.73;8.27;;;;;;;14.04;80.47;99427.13;338366;29;1908;-71
2022/11/01 00:44:11;;;;;;;11.50;7.90;;;;;;;14.00;80.40;99429.03;337812;29;1805;-72
2022/11/01 00:44:23;;;;;;;11.35;8.02;;;;;;;14.03;80.55;99428.06;338012;29;1719;-72
2022/11/01 00:44:35;;;;;;;13.88;8.57;;;;;;;14.02;80.34;99426.34;338073;29;1231;-72
2022/11/01 00:44:47;;;;;;;17.35;9.10;;;;;;;14.02;80.41;99431.59;338411;29;1143;-71
2022/11/01 00:44:59;;;;;;;16.17;9.07;;;;;;;14.02;80.43;99432.44;338276;29;1804;-71
2022/11/01 00:45:11;;;;;;;14.35;8.88;;;;;;;14.03;80.32;99438.53;338624;29;1923;-71
2022/11/01 00:45:23;;;;;;;15.68;8.98;;;;;;;14.02;80.35;99427.19;339455;29;1948;-72
2022/11/01 00:45:35;;;;;;;16.88;9.18;;;;;;;14.01;80.33;99428.13;340006;29;2012;-71
2022/11/01 00:45:47;;;;;;;16.50;9.27;;;;;;;14.02;80.47;99426.34;340853;29;1056;-71
2022/11/01 00:46:00;;;;;;;15.57;9.23;;;;;;;14.02;80.46;99431.59;341149;29;1176;-72
2022/11/01 00:46:12;;;;;;;15.98;9.32;;;;;;;14.02;80.32;99427.19;340404;29;1894;-71
2022/11/01 00:46:24;;;;;;;15.13;9.30;;;;;;;14.02;80.50;99423.75;341040;29;1380;-72
2022/11/01 00:46:35;;;;;;;15.68;9.25;;;;;;;14.02;80.54;99424.59;340747;29;1215;-72
2022/11/01 00:46:48;;;;;;;14.40;9.10;;;;;;;14.03;80.48;99417.63;340978;28;1627;-72
2022/11/01 00:46:59;;;;;;;15.10;9.15;;;;;;;14.02;80.59;99426.34;341032;29;1140;-71
2022/11/01 00:47:12;;;;;;;14.15;9.00;;;;;;;14.03;80.57;99423.69;339187;29;1679;-72
2022/11/01 00:47:23;;;;;;;13.93;8.98;;;;;;;14.02;80.58;99427.19;339126;29;1934;-72
2022/11/01 00:47:35;;;;;;;13.18;8.88;;;;;;;14.02;80.68;99421.13;339612;29;1054;-71
2022/11/01 00:47:48;;;;;;;12.90;8.50;;;;;;;14.02;80.57;99421.13;339714;29;1242;-72
2022/11/01 00:48:00;;;;;;;13.68;8.45;;;;;;;14.04;80.67;99429.75;339735;29;1254;-72
2022/11/01 00:48:13;;;;;;;15.57;8.88;;;;;;;14.03;80.58;99428.06;338744;29;1856;-72
2022/11/01 00:48:25;;;;;;;14.52;9.20;;;;;;;14.02;80.39;99423.75;339620;29;1628;-72
2022/11/01 00:48:37;;;;;;;13.68;8.82;;;;;;;13.99;80.68;99425.59;339575;29;1125;-72
2022/11/01 00:48:49;;;;;;;13.48;8.50;;;;;;;13.98;80.64;99434.38;339830;29;1112;-72
2022/11/01 00:49:01;;;;;;;14.63;8.57;;;;;;;13.98;80.75;99429.13;339147;29;1613;-72
2022/11/01 00:49:13;;;;;;;16.30;8.60;;;;;;;13.99;80.74;99429.97;339683;29;1683;-72
2022/11/01 00:49:25;;;;;;;14.60;8.45;;;;;;;14.01;80.62;99425.53;339224;29;1824;-72
2022/11/01 00:49:37;;;;;;;12.70;8.23;;;;;;;14.03;80.61;99430.69;338749;29;1958;-72
2022/11/01 00:49:48;;;;;;;10.82;8.07;;;;;;;14.04;80.59;99424.50;339019;29;1244;-72
2022/11/01 00:50:00;;;;;;;10.45;8.07;;;;;;;14.03;80.46;99423.69;338509;29;1895;-71
2022/11/01 00:50:13;;;;;;;12.43;8.38;;;;;;;14.05;80.39;99421.81;337353;29;1141;-71
2022/11/01 00:50:25;;;;;;;16.10;8.95;;;;;;;13.99;80.45;99422.13;338498;29;1404;-73
2022/11/01 00:50:38;;;;;;;16.85;8.85;;;;;;;13.96;80.63;99422.28;338700;29;1819;-72
2022/11/01 00:50:50;;;;;;;16.02;8.75;;;;;;;13.97;80.69;99419.59;338077;29;2372;-72
2022/11/01 00:51:02;;;;;;;15.13;8.85;;;;;;;13.95;80.57;99426.66;336974;29;1082;-72
2022/11/01 00:51:14;;;;;;;14.25;9.10;;;;;;;13.94;80.59;99425.00;337335;29;1386;-71
2022/11/01 00:51:26;;;;;;;14.45;9.25;;;;;;;13.93;80.53;99423.28;338541;29;1263;-72
2022/11/01 00:51:38;;;;;;;14.10;9.25;;;;;;;13.94;80.41;99430.22;337127;29;1179;-72
2022/11/01 00:51:51;;;;;;;16.38;9.60;;;;;;;13.89;80.40;99432.19;336374;29;1563;-72
2022/11/01 00:52:03;;;;;;;17.65;9.60;;;;;;;13.88;80.55;99427.88;337108;29;1070;-72
2022/11/01 00:52:15;;;;;;;16.90;9.73;;;;;;;13.87;80.31;99423.59;337437;29;1115;-72
2022/11/01 00:52:27;;;;;;;15.57;9.82;;;;;;;13.87;80.17;99427.97;337411;29;1145;-71
2022/11/01 00:52:39;;;;;;;15.27;9.85;;;;;;;13.88;80.20;99430.50;337652;29;1071;-71
2022/11/01 00:52:50;;;;;;;15.13;9.77;;;;;;;13.89;80.00;99432.19;338176;29;1334;-71
2022/11/01 00:53:02;;;;;;;14.60;9.32;;;;;;;13.90;80.07;99426.03;338306;29;1095;-72
2022/11/01 00:53:15;;;;;;;13.25;8.98;;;;;;;13.89;80.09;99426.97;338598;29;1993;-72
2022/11/01 00:53:27;;;;;;;13.68;9.05;;;;;;;13.87;79.80;99428.81;338844;29;1932;-74
2022/11/01 00:53:39;;;;;;;14.50;9.13;;;;;;;13.84;79.44;99433.34;339148;28;1742;-73
2022/11/01 00:53:52;;;;;;;13.85;9.13;;;;;;;13.85;80.09;99430.66;340174;28;2211;-72
2022/11/01 00:54:04;;;;;;;14.07;9.27;;;;;;;13.85;80.14;99435.88;338506;29;1797;-72
2022/11/01 00:54:16;;;;;;;15.20;9.70;;;;;;;13.86;79.95;99432.34;339032;29;1984;-72
2022/11/01 00:54:28;;;;;;;14.87;9.40;;;;;;;13.85;79.99;99429.81;339768;29;1960;-72
2022/11/01 00:54:41;;;;;;;14.95;9.25;;;;;;;13.88;80.11;99425.28;339762;29;1310;-72
2022/11/01 00:54:53;;;;;;;15.05;8.95;;;;;;;13.88;79.96;99430.50;339434;29;1202;-71
2022/11/01 00:55:06;;;;;;;15.35;9.10;;;;;;;13.89;80.01;99432.19;338693;29;942;-72
2022/11/01 00:55:18;;;;;;;16.73;9.05;;;;;;;13.89;80.05;99426.97;337845;29;1959;-71
2022/11/01 00:55:30;;;;;;;16.33;9.20;;;;;;;13.90;79.98;99428.66;338234;29;1796;-71
2022/11/01 00:55:42;;;;;;;15.88;9.23;;;;;;;13.90;80.07;99428.66;338254;29;1077;-71
2022/11/01 00:56:02;;;;;;;15.13;9.25;;;;;;;13.89;80.04;99424.38;338504;29;1203;-72
2022/11/01 00:56:14;;;;;;;15.60;9.52;;;;;;;13.87;80.27;99428.81;339194;29;2137;-71
2022/11/01 00:56:25;;;;;;;16.80;9.85;;;;;;;13.82;80.43;99420.34;339696;29;1663;-73
2022/11/01 00:56:38;;;;;;;16.48;10.02;;;;;;;13.83;80.56;99424.66;339770;29;1060;-73
2022/11/01 00:56:50;;;;;;;16.15;10.02;;;;;;;13.82;80.68;99425.56;339550;29;1185;-73
2022/11/01 00:57:02;;;;;;;16.70;9.95;;;;;;;13.83;80.33;99424.66;338033;29;1619;-73
2022/11/01 00:57:14;;;;;;;17.83;10.15;;;;;;;13.83;80.69;99423.84;338277;29;1888;-72
2022/11/01 00:57:26;;;;;;;16.50;10.13;;;;;;;13.84;80.60;99428.97;338273;29;1751;-73
2022/11/01 00:57:38;;;;;;;17.00;9.90;;;;;;;13.84;80.61;99425.50;337300;29;1180;-71
2022/11/01 00:57:50;;;;;;;19.45;10.20;;;;;;;13.87;80.60;99425.38;336733;29;1128;-72
2022/11/01 00:58:03;;;;;;;19.33;9.77;;;;;;;13.89;80.47;99426.97;337828;29;1708;-72
2022/11/01 00:58:15;;;;;;;15.38;8.80;;;;;;;13.91;80.36;99424.28;338260;29;2005;-72
2022/11/01 00:58:27;;;;;;;14.70;8.68;;;;;;;13.91;80.01;99430.34;337269;29;1066;-71
2022/11/01 00:58:39;;;;;;;14.35;8.88;;;;;;;13.89;79.98;99429.59;336869;29;1102;-71